Time;durP1;ratioP1;P1;durP2;ratioP2;P2;SDS_P1;SDS_P2;PMS_P1;PMS_P2;Temp;Humidity;BMP_temperature;BMP_pressure;BME280_temperature;BME280_humidity;BME280_pressure;Samples;Min_cycle;Max_cycle;Signal;HPM_P1;HPM_P2
2022/12/31 00:01:36;;;;;;;;;;;;;;;9.68;86.84;99312.25;10244730;29;19990;-82
2022/12/31 00:06:37;;;;;;;;;;;;;;;9.58;87.44;99335.38;10233115;29;19923;-81
2022/12/31 00:11:39;;;;;;;;;;;;;;;9.38;89.37;99350.16;10230456;29;19929;-82
2022/12/31 00:16:41;;;;;;;;;;;;;;;9.36;90.46;99365.97;10230329;29;20029;-84
2022/12/31 00:21:43;;;;;;;;;;;;;;;9.41;90.34;99363.19;10231987;29;19923;-82
2022/12/31 00:26:44;;;;;;;;;;;;;;;9.20;91.18;99362.19;10226990;29;19933;-82
2022/12/31 00:31:46;;;;;;;;;;;;;;;9.09;92.38;99366.09;10241020;29;19926;-81
2022/12/31 00:36:47;;;;;;;;;;;;;;;9.23;92.53;99372.59;10240941;29;20377;-81
2022/12/31 00:41:49;;;;;;;;;;;;;;;9.39;92.96;99378.13;10239521;29;19923;-82
2022/12/31 00:46:50;;;;;;;;;;;;;;;9.26;92.78;99390.84;10236880;29;19922;-83
2022/12/31 00:51:52;;;;;;;;;;;;;;;9.00;94.32;99394.41;10240965;29;19926;-81
2022/12/31 00:56:54;;;;;;;;;;;;;;;9.04;95.24;99399.47;10238339;29;20035;-82
2022/12/31 01:01:55;;;;;;;;;;;;;;;9.11;95.32;99405.34;10237091;29;19923;-82
2022/12/31 01:06:57;;;;;;;;;;;;;;;9.32;94.34;99403.72;10219693;29;19980;-82
2022/12/31 01:11:59;;;;;;;;;;;;;;;9.16;95.72;99406.03;10236024;29;19923;-82
2022/12/31 01:17:00;;;;;;;;;;;;;;;9.19;95.46;99419.03;10236628;29;19923;-82
2022/12/31 01:22:02;;;;;;;;;;;;;;;9.23;95.06;99425.03;10235791;29;19969;-81
2022/12/31 01:27:03;;;;;;;;;;;;;;;8.92;96.16;99425.25;10235179;29;19922;-82
2022/12/31 01:32:05;;;;;;;;;;;;;;;8.71;97.50;99435.56;10235632;29;19927;-82
2022/12/31 01:37:06;;;;;;;;;;;;;;;8.77;97.61;99447.63;10234662;29;19929;-82
2022/12/31 01:42:10;;;;;;;;;;;;;;;8.67;97.00;99456.69;10214121;29;19974;-82
2022/12/31 01:47:14;;;;;;;;;;;;;;;8.64;97.56;99468.13;10234277;29;19922;-83
2022/12/31 01:52:19;;;;;;;;;;;;;;;8.68;97.76;99466.28;10241582;29;19923;-82
2022/12/31 01:57:21;;;;;;;;;;;;;;;8.63;97.44;99476.00;10247974;29;19923;-82
2022/12/31 02:02:23;;;;;;;;;;;;;;;8.62;97.02;99474.31;10250595;29;19938;-82
2022/12/31 02:07:24;;;;;;;;;;;;;;;8.36;98.61;99475.97;10251520;29;19933;-83
2022/12/31 02:12:26;;;;;;;;;;;;;;;8.48;98.61;99474.75;10236657;29;19923;-81
2022/12/31 02:17:40;;;;;;;;;;;;;;;8.74;96.94;99472.16;10235032;29;19923;-81
2022/12/31 02:23:09;;;;;;;;;;;;;;;8.41;98.61;99474.13;10236494;29;19923;-83
2022/12/31 02:28:14;;;;;;;;;;;;;;;8.35;99.89;99476.88;10234770;29;19923;-82
2022/12/31 02:33:20;;;;;;;;;;;;;;;8.37;99.84;99475.13;10232195;29;19947;-82
2022/12/31 02:38:25;;;;;;;;;;;;;;;9.04;100.00;99453.69;10214228;29;19923;-81
2022/12/31 02:43:27;;;;;;;;;;;;;;;10.18;100.00;99440.69;10228874;29;19930;-81
2022/12/31 02:48:37;;;;;;;;;;;;;;;11.28;96.12;99441.34;10229034;29;19926;-81
2022/12/31 02:53:42;;;;;;;;;;;;;;;11.63;92.39;99447.66;10228133;29;19922;-81
2022/12/31 03:04:36;;;;;;;;;;;;;;;11.76;90.86;99413.72;10131404;29;19923;-81
2022/12/31 03:09:38;;;;;;;;;;;;;;;12.04;89.29;99430.88;10149741;29;19955;-81
2022/12/31 03:14:39;;;;;;;;;;;;;;;12.12;88.48;99437.50;10147224;29;19931;-81
2022/12/31 03:30:28;;;;;;;;;;;;;;;12.37;87.08;99436.34;10145037;29;19987;-81
2022/12/31 03:35:31;;;;;;;;;;;;;;;12.08;89.16;99437.72;10268575;23;20438;-83
2022/12/31 03:40:37;;;;;;;;;;;;;;;12.07;89.37;99442.13;10264979;29;19930;-82
2022/12/31 03:45:38;;;;;;;;;;;;;;;12.30;88.34;99435.75;10282171;29;19955;-82
2022/12/31 03:50:40;;;;;;;;;;;;;;;12.32;87.85;99420.75;10285390;29;20292;-81
2022/12/31 03:55:41;;;;;;;;;;;;;;;12.03;89.36;99432.66;10286015;28;19922;-82
2022/12/31 04:00:43;;;;;;;;;;;;;;;12.04;90.23;99430.88;10287517;28;19922;-82
2022/12/31 04:05:50;;;;;;;;;;;;;;;12.12;90.13;99429.59;10290870;29;19930;-82
2022/12/31 04:10:52;;;;;;;;;;;;;;;12.16;89.34;99432.94;10279421;29;19986;-82
2022/12/31 04:15:53;;;;;;;;;;;;;;;12.02;90.38;99425.69;10303589;29;19930;-81
2022/12/31 04:20:59;;;;;;;;;;;;;;;12.15;89.88;99423.34;10300507;28;19922;-82
2022/12/31 04:26:01;;;;;;;;;;;;;;;12.04;90.62;99436.16;10282568;29;20028;-82
2022/12/31 04:31:03;;;;;;;;;;;;;;;12.28;89.39;99426.25;10299410;29;19993;-82
2022/12/31 04:36:05;;;;;;;;;;;;;;;12.52;87.63;99413.63;10282923;29;19923;-82
2022/12/31 04:41:16;;;;;;;;;;;;;;;12.48;87.66;99409.44;10276508;29;19923;-81
2022/12/31 04:46:19;;;;;;;;;;;;;;;12.65;87.44;99404.19;10274833;28;19923;-81
2022/12/31 04:51:21;;;;;;;;;;;;;;;12.63;87.51;99401.63;10273297;29;19922;-81
2022/12/31 04:56:23;;;;;;;;;;;;;;;13.03;84.55;99406.66;10272226;29;20075;-82
2022/12/31 05:01:25;;;;;;;;;;;;;;;13.15;83.86;99403.41;10257977;29;19922;-82
2022/12/31 05:06:26;;;;;;;;;;;;;;;13.09;84.44;99409.81;10257576;28;19923;-82
2022/12/31 05:11:28;;;;;;;;;;;;;;;13.28;83.20;99401.84;10296731;28;19945;-81
2022/12/31 05:16:30;;;;;;;;;;;;;;;13.28;83.16;99396.56;10297808;28;19930;-82
2022/12/31 05:21:31;;;;;;;;;;;;;;;13.32;83.40;99400.72;10284424;29;19929;-82
2022/12/31 05:26:33;;;;;;;;;;;;;;;13.36;83.42;99401.41;10290409;29;19995;-81
2022/12/31 05:31:35;;;;;;;;;;;;;;;13.56;82.50;99409.13;10288875;29;19927;-82
2022/12/31 05:36:36;;;;;;;;;;;;;;;13.48;82.84;99389.38;10294404;29;20439;-81
2022/12/31 05:41:38;;;;;;;;;;;;;;;13.32;84.04;99402.50;10306438;29;19946;-80
2022/12/31 05:46:39;;;;;;;;;;;;;;;13.44;83.43;99404.50;10292651;28;19950;-81
2022/12/31 05:51:41;;;;;;;;;;;;;;;13.30;84.63;99415.81;10309575;28;19913;-80
2022/12/31 05:56:43;;;;;;;;;;;;;;;13.55;83.40;99419.78;10305291;28;19922;-81
2022/12/31 06:01:44;;;;;;;;;;;;;;;13.65;82.12;99425.44;10291309;28;19953;-82
2022/12/31 06:06:46;;;;;;;;;;;;;;;13.56;82.95;99445.25;10306348;28;19985;-82
2022/12/31 06:11:47;;;;;;;;;;;;;;;13.59;82.79;99445.06;10309131;28;19938;-81
2022/12/31 06:16:49;;;;;;;;;;;;;;;13.68;82.58;99439.31;10308854;28;19918;-81
2022/12/31 06:21:50;;;;;;;;;;;;;;;13.65;82.49;99436.00;10308357;28;19918;-80
2022/12/31 06:26:52;;;;;;;;;;;;;;;13.60;82.38;99429.16;10309260;28;19994;-80
2022/12/31 06:31:54;;;;;;;;;;;;;;;13.44;83.22;99425.63;10308514;28;19922;-80
2022/12/31 06:36:55;;;;;;;;;;;;;;;13.58;82.39;99416.97;10308577;28;19911;-82
2022/12/31 06:41:57;;;;;;;;;;;;;;;13.65;81.83;99417.50;10307816;28;19930;-81
2022/12/31 06:46:58;;;;;;;;;;;;;;;13.63;81.82;99413.16;10307751;28;19992;-81
2022/12/31 06:52:00;;;;;;;;;;;;;;;13.66;81.74;99420.06;10307340;28;19989;-81
2022/12/31 06:57:02;;;;;;;;;;;;;;;13.41;83.19;99438.97;10307928;28;19910;-81
2022/12/31 07:02:10;;;;;;;;;;;;;;;13.49;82.53;99449.16;10307248;28;19941;-82
2022/12/31 07:07:27;;;;;;;;;;;;;;;13.73;80.91;99468.13;10306462;28;19950;-81
2022/12/31 07:12:29;;;;;;;;;;;;;;;13.75;81.24;99472.38;10306958;28;19913;-81
2022/12/31 07:17:35;;;;;;;;;;;;;;;13.54;82.11;99473.50;10306325;28;19977;-82
2022/12/31 07:22:37;;;;;;;;;;;;;;;13.77;81.00;99472.31;10306469;28;19994;-82
2022/12/31 07:27:57;;;;;;;;;;;;;;;13.67;81.50;99452.59;10306153;28;19923;-82
2022/12/31 07:33:24;;;;;;;;;;;;;;;13.83;80.66;99450.84;10305358;28;19914;-81
2022/12/31 07:38:35;;;;;;;;;;;;;;;14.09;79.38;99458.19;10306447;28;19934;-81
2022/12/31 07:43:49;;;;;;;;;;;;;;;14.21;79.02;99458.44;10305734;28;19910;-81
2022/12/31 07:48:51;;;;;;;;;;;;;;;14.64;76.88;99468.31;10306287;28;19906;-81
2022/12/31 07:53:52;;;;;;;;;;;;;;;14.79;76.13;99466.59;10305680;28;19907;-81
2022/12/31 07:59:01;;;;;;;;;;;;;;;14.98;75.23;99444.34;10304770;28;19930;-80
2022/12/31 08:04:17;;;;;;;;;;;;;;;15.09;74.84;99468.38;10305533;28;19918;-81
2022/12/31 08:09:18;;;;;;;;;;;;;;;15.27;73.87;99440.81;10305798;28;19970;-81
2022/12/31 08:14:20;;;;;;;;;;;;;;;15.51;72.50;99475.53;10305070;28;19949;-81
2022/12/31 08:19:27;;;;;;;;;;;;;;;15.71;71.55;99476.97;10305606;28;19911;-82
2022/12/31 08:24:34;;;;;;;;;;;;;;;15.76;71.51;99474.03;10305521;28;19995;-81
2022/12/31 08:29:44;;;;;;;;;;;;;;;15.86;70.86;99477.84;10305430;28;19998;-82
2022/12/31 08:34:52;;;;;;;;;;;;;;;16.01;69.94;99468.06;10304657;28;19922;-81
2022/12/31 08:39:57;;;;;;;;;;;;;;;16.07;69.60;99484.47;10288460;28;19933;-80
2022/12/31 08:45:07;;;;;;;;;;;;;;;16.17;69.21;99494.47;10309839;28;19949;-80
2022/12/31 08:50:14;;;;;;;;;;;;;;;16.14;69.61;99498.16;10312144;28;19910;-82
2022/12/31 08:55:17;;;;;;;;;;;;;;;16.21;68.85;99483.59;10311699;28;19917;-82
2022/12/31 09:00:20;;;;;;;;;;;;;;;16.28;68.73;99486.69;10295968;28;19911;-81
2022/12/31 09:05:22;;;;;;;;;;;;;;;16.45;67.97;99501.50;10311549;28;19931;-82
2022/12/31 09:10:29;;;;;;;;;;;;;;;16.43;68.04;99514.88;10311460;28;19906;-80
2022/12/31 09:15:42;;;;;;;;;;;;;;;16.53;67.42;99523.94;10310768;28;19921;-81
2022/12/31 09:20:44;;;;;;;;;;;;;;;16.71;66.70;99526.38;10299737;29;19930;-78
2022/12/31 09:25:51;;;;;;;;;;;;;;;16.57;67.61;99541.38;10307933;28;19910;-80
2022/12/31 09:30:52;;;;;;;;;;;;;;;16.66;66.22;99545.25;10304161;28;19922;-82
2022/12/31 09:35:57;;;;;;;;;;;;;;;16.82;65.74;99545.13;10302452;23;19954;-80
2022/12/31 09:40:58;;;;;;;;;;;;;;;16.71;66.17;99558.22;10278392;29;19923;-80
2022/12/31 09:46:19;;;;;;;;;;;;;;;16.82;65.46;99556.63;10278853;29;20002;-80
2022/12/31 09:51:28;;;;;;;;;;;;;;;17.01;64.20;99542.13;10279437;28;20307;-81
2022/12/31 09:56:48;;;;;;;;;;;;;;;16.95;64.22;99551.31;10276344;28;19934;-79
2022/12/31 10:02:14;;;;;;;;;;;;;;;16.83;65.14;99555.66;10279216;29;19922;-78
2022/12/31 10:07:15;;;;;;;;;;;;;;;16.96;64.33;99552.19;10278407;29;20336;-78
2022/12/31 10:12:35;;;;;;;;;;;;;;;17.09;63.92;99545.13;10277909;29;19934;-80
2022/12/31 10:17:46;;;;;;;;;;;;;;;17.15;63.51;99565.97;10280229;29;20013;-79
2022/12/31 10:23:14;;;;;;;;;;;;;;;17.06;64.19;99556.78;10291484;29;19950;-79
2022/12/31 10:28:35;;;;;;;;;;;;;;;17.17;63.80;99553.41;10294984;29;19922;-77
2022/12/31 10:33:41;;;;;;;;;;;;;;;17.22;63.53;99547.78;10297257;29;19911;-78
2022/12/31 10:38:52;;;;;;;;;;;;;;;17.40;62.79;99547.44;10297871;29;19922;-80
2022/12/31 10:44:12;;;;;;;;;;;;;;;17.37;62.91;99541.47;10289852;29;19994;-80
2022/12/31 10:49:19;;;;;;;;;;;;;;;17.28;62.98;99544.75;10292611;29;19945;-80
2022/12/31 10:54:30;;;;;;;;;;;;;;;17.20;63.97;99549.72;10293391;29;19922;-79
2022/12/31 10:59:44;;;;;;;;;;;;;;;17.31;63.16;99557.78;10290875;29;19929;-81
2022/12/31 11:04:51;;;;;;;;;;;;;;;17.26;63.34;99542.16;10276097;28;20424;-79
2022/12/31 11:10:12;;;;;;;;;;;;;;;17.18;63.60;99546.28;10272867;29;20004;-78
2022/12/31 11:15:26;;;;;;;;;;;;;;;17.33;63.22;99534.66;10273572;29;19964;-80
2022/12/31 11:20:46;;;;;;;;;;;;;;;17.27;63.82;99540.41;10274404;29;19923;-80
2022/12/31 11:26:12;;;;;;;;;;;;;;;17.36;63.13;99545.09;10275760;29;19946;-79
2022/12/31 11:31:31;;;;;;;;;;;;;;;17.42;63.00;99554.44;10275099;29;19922;-79
2022/12/31 11:36:42;;;;;;;;;;;;;;;17.49;62.88;99540.63;10276567;29;20288;-79
2022/12/31 11:41:52;;;;;;;;;;;;;;;17.52;62.71;99556.34;10274087;28;19998;-78
2022/12/31 11:46:57;;;;;;;;;;;;;;;17.67;62.08;99570.44;10272723;29;20414;-77
2022/12/31 11:52:01;;;;;;;;;;;;;;;17.76;61.19;99569.81;10273158;29;19938;-77
2022/12/31 11:57:15;;;;;;;;;;;;;;;17.82;61.16;99571.19;10269989;29;19922;-78
2022/12/31 12:02:23;;;;;;;;;;;;;;;17.77;61.11;99560.03;10257071;29;19922;-79
2022/12/31 12:07:25;;;;;;;;;;;;;;;17.73;61.15;99567.34;10269995;29;19984;-78
2022/12/31 12:12:40;;;;;;;;;;;;;;;17.82;60.19;99561.41;10251487;29;19953;-78
2022/12/31 12:17:42;;;;;;;;;;;;;;;17.97;60.29;99558.63;10285306;28;19928;-79
2022/12/31 12:22:47;;;;;;;;;;;;;;;18.32;58.07;99558.81;10306768;28;19907;-78
2022/12/31 12:27:50;;;;;;;;;;;;;;;18.29;57.99;99556.38;10311007;28;19930;-80
2022/12/31 12:32:52;;;;;;;;;;;;;;;18.23;58.18;99547.00;10308429;29;19990;-79
2022/12/31 12:37:59;;;;;;;;;;;;;;;18.22;58.56;99553.31;10288809;29;19923;-80
2022/12/31 12:43:01;;;;;;;;;;;;;;;18.09;58.60;99555.97;10291233;29;19994;-82
2022/12/31 12:48:07;;;;;;;;;;;;;;;18.03;59.21;99551.09;10296170;29;19926;-80
2022/12/31 12:53:27;;;;;;;;;;;;;;;18.18;58.45;99546.50;10298206;29;19923;-80
2022/12/31 12:58:30;;;;;;;;;;;;;;;17.96;59.00;99543.66;10288632;29;19989;-78
2022/12/31 13:03:55;;;;;;;;;;;;;;;17.97;59.62;99555.97;10282187;29;19922;-79
2022/12/31 13:09:29;;;;;;;;;;;;;;;17.95;59.40;99553.44;10292982;29;19922;-79
2022/12/31 13:14:43;;;;;;;;;;;;;;;17.94;59.37;99562.38;10297813;29;19926;-78
2022/12/31 13:19:51;;;;;;;;;;;;;;;17.91;59.91;99551.94;10296750;29;19922;-80
2022/12/31 13:25:05;;;;;;;;;;;;;;;17.96;58.83;99565.78;10299996;29;19922;-81
2022/12/31 13:30:18;;;;;;;;;;;;;;;17.84;59.86;99555.97;10295028;28;19922;-82
2022/12/31 13:35:27;;;;;;;;;;;;;;;17.77;60.05;99562.69;10292426;29;19946;-80
2022/12/31 13:40:32;;;;;;;;;;;;;;;17.91;59.13;99570.56;10298019;29;19957;-79
2022/12/31 13:45:43;;;;;;;;;;;;;;;17.68;60.31;99564.16;10273684;29;19922;-79
2022/12/31 13:50:53;;;;;;;;;;;;;;;17.80;60.03;99587.28;10295343;29;19926;-79
2022/12/31 13:55:57;;;;;;;;;;;;;;;17.76;60.12;99607.03;10293812;29;19930;-81
2022/12/31 14:01:04;;;;;;;;;;;;;;;17.57;60.73;99612.69;10298953;29;19922;-79
2022/12/31 14:06:10;;;;;;;;;;;;;;;17.53;61.00;99600.59;10296830;29;19923;-80
2022/12/31 14:11:16;;;;;;;;;;;;;;;17.52;60.99;99606.00;10292914;29;19973;-81
2022/12/31 14:16:20;;;;;;;;;;;;;;;17.38;61.66;99588.31;10286432;29;19922;-79
2022/12/31 14:21:25;;;;;;;;;;;;;;;17.47;61.01;99602.81;10285477;29;19923;-79
2022/12/31 14:26:30;;;;;;;;;;;;;;;17.37;61.85;99603.41;10285072;29;19977;-80
2022/12/31 14:31:37;;;;;;;;;;;;;;;17.32;61.41;99624.13;10287322;29;19922;-80
2022/12/31 14:36:45;;;;;;;;;;;;;;;17.25;61.89;99636.09;10287997;29;19922;-80
2022/12/31 14:41:59;;;;;;;;;;;;;;;17.28;61.88;99653.66;10286878;28;19929;-81
2022/12/31 14:47:11;;;;;;;;;;;;;;;17.10;62.22;99656.56;10285265;29;19927;-80
2022/12/31 14:52:19;;;;;;;;;;;;;;;17.03;62.86;99663.19;10283890;29;19930;-80
2022/12/31 14:57:23;;;;;;;;;;;;;;;17.12;62.17;99662.59;10284618;29;19926;-80
2022/12/31 15:02:26;;;;;;;;;;;;;;;17.15;61.68;99656.25;10283239;29;19970;-79
2022/12/31 15:07:33;;;;;;;;;;;;;;;17.22;61.25;99665.53;10272750;29;19929;-78
2022/12/31 15:12:45;;;;;;;;;;;;;;;17.11;62.00;99660.06;10281852;29;19929;-80
2022/12/31 15:17:46;;;;;;;;;;;;;;;17.21;61.25;99666.47;10286926;29;19927;-80
2022/12/31 15:22:49;;;;;;;;;;;;;;;17.20;61.23;99686.03;10286779;29;19946;-80
2022/12/31 15:27:51;;;;;;;;;;;;;;;17.19;61.30;99686.97;10289619;29;19933;-78
2022/12/31 15:32:55;;;;;;;;;;;;;;;17.29;60.61;99698.69;10277787;29;19933;-80
2022/12/31 15:38:09;;;;;;;;;;;;;;;17.15;61.09;99699.59;10270314;29;19926;-79
2022/12/31 15:43:26;;;;;;;;;;;;;;;16.83;62.55;99708.75;10291808;28;19937;-80
2022/12/31 15:48:28;;;;;;;;;;;;;;;16.85;62.35;99712.16;10334374;23;20015;-76
2022/12/31 15:53:41;;;;;;;;;;;;;;;17.04;61.51;99687.94;10254542;28;19993;-76
2022/12/31 15:58:44;;;;;;;;;;;;;;;17.00;61.44;99697.06;10255280;29;19922;-76
2022/12/31 16:04:09;;;;;;;;;;;;;;;16.97;61.34;99708.75;10256691;29;19958;-76
2022/12/31 16:09:17;;;;;;;;;;;;;;;16.84;62.01;99703.34;10247706;29;19922;-76
2022/12/31 16:14:21;;;;;;;;;;;;;;;16.96;61.54;99712.34;10254634;29;19926;-76
2022/12/31 16:19:33;;;;;;;;;;;;;;;16.86;61.76;99720.00;10254467;29;19922;-76
2022/12/31 16:24:35;;;;;;;;;;;;;;;16.93;61.62;99715.19;10252733;29;19922;-76
2022/12/31 16:29:59;;;;;;;;;;;;;;;16.89;61.55;99719.00;10257762;29;20364;-76
2022/12/31 16:35:00;;;;;;;;;;;;;;;16.99;61.18;99732.53;10253727;29;19926;-76
2022/12/31 16:40:07;;;;;;;;;;;;;;;16.68;62.45;99734.41;10253663;29;20408;-76
2022/12/31 16:45:16;;;;;;;;;;;;;;;16.52;63.01;99734.50;10255406;29;19928;-76
2022/12/31 16:50:22;;;;;;;;;;;;;;;16.32;64.11;99741.00;10257014;29;19933;-76
2022/12/31 16:55:25;;;;;;;;;;;;;;;16.36;64.09;99739.88;10256055;29;19922;-76
2022/12/31 17:00:27;;;;;;;;;;;;;;;16.28;64.67;99735.97;10253985;29;19930;-76
2022/12/31 17:05:28;;;;;;;;;;;;;;;16.27;64.74;99739.59;10257276;28;20009;-76
2022/12/31 17:10:35;;;;;;;;;;;;;;;16.49;63.97;99742.66;10260855;29;19926;-76
2022/12/31 17:15:41;;;;;;;;;;;;;;;16.52;63.93;99745.13;10265585;29;19965;-75
2022/12/31 17:20:43;;;;;;;;;;;;;;;16.18;65.18;99740.13;10262315;29;19957;-76
2022/12/31 17:25:44;;;;;;;;;;;;;;;16.18;65.34;99734.84;10260018;29;19923;-75
2022/12/31 17:30:46;;;;;;;;;;;;;;;16.02;66.02;99741.03;10261410;29;20376;-76
2022/12/31 17:35:52;;;;;;;;;;;;;;;16.00;66.49;99757.97;10264626;28;20444;-76
2022/12/31 17:41:06;;;;;;;;;;;;;;;15.97;66.54;99774.91;10261474;29;20307;-77
2022/12/31 17:46:10;;;;;;;;;;;;;;;16.19;66.01;99760.41;10260486;29;19922;-76
2022/12/31 17:51:11;;;;;;;;;;;;;;;16.10;66.25;99770.59;10259605;29;19962;-76
2022/12/31 17:56:17;;;;;;;;;;;;;;;15.97;66.54;99782.88;10259700;29;19923;-76
2022/12/31 18:01:20;;;;;;;;;;;;;;;15.78;67.32;99787.53;10261419;29;19933;-76
2022/12/31 18:06:22;;;;;;;;;;;;;;;15.60;68.33;99778.78;10260631;29;19993;-76
2022/12/31 18:11:24;;;;;;;;;;;;;;;15.63;67.84;99790.09;10260942;29;19929;-76
2022/12/31 18:16:25;;;;;;;;;;;;;;;15.67;67.45;99797.88;10258933;28;19922;-76
2022/12/31 18:21:32;;;;;;;;;;;;;;;15.44;68.52;99793.81;10266594;29;19922;-76
2022/12/31 18:26:34;;;;;;;;;;;;;;;15.12;69.61;99791.16;10261532;29;19922;-75
2022/12/31 18:31:36;;;;;;;;;;;;;;;14.96;70.26;99785.81;10244415;29;19922;-76
2022/12/31 18:36:38;;;;;;;;;;;;;;;14.90;71.00;99783.53;10258932;29;19969;-76
2022/12/31 18:41:41;;;;;;;;;;;;;;;15.25;69.53;99783.41;10258263;29;20427;-76
2022/12/31 18:46:42;;;;;;;;;;;;;;;15.17;69.58;99767.09;10258389;29;20005;-75
2022/12/31 18:51:44;;;;;;;;;;;;;;;15.45;67.58;99769.03;10257850;29;19929;-76
2022/12/31 18:56:45;;;;;;;;;;;;;;;15.06;69.44;99773.81;10257621;29;19965;-75
2022/12/31 19:01:52;;;;;;;;;;;;;;;14.83;70.45;99759.19;10257642;29;19993;-75
2022/12/31 19:06:55;;;;;;;;;;;;;;;14.56;72.04;99753.56;10260122;29;19922;-76
2022/12/31 19:11:57;;;;;;;;;;;;;;;14.35;72.71;99757.31;10255989;28;20303;-76
2022/12/31 19:16:59;;;;;;;;;;;;;;;14.16;73.49;99751.22;10258155;29;19929;-76
2022/12/31 19:22:02;;;;;;;;;;;;;;;13.98;74.70;99750.38;10256654;29;19918;-76
2022/12/31 19:27:03;;;;;;;;;;;;;;;13.92;74.54;99745.41;10260114;28;20402;-76
2022/12/31 19:32:05;;;;;;;;;;;;;;;13.90;74.21;99737.56;10260460;29;20323;-77
2022/12/31 19:37:10;;;;;;;;;;;;;;;13.97;73.54;99746.88;10258734;29;19922;-76
2022/12/31 19:42:14;;;;;;;;;;;;;;;14.23;71.39;99740.28;10262285;28;19923;-76
2022/12/31 19:47:15;;;;;;;;;;;;;;;14.63;68.79;99738.22;10263113;29;19950;-76
2022/12/31 19:52:17;;;;;;;;;;;;;;;15.37;64.80;99732.41;10258877;28;19922;-75
2022/12/31 19:57:18;;;;;;;;;;;;;;;15.29;64.97;99739.94;10259426;29;20304;-76
2022/12/31 20:02:21;;;;;;;;;;;;;;;15.58;62.78;99733.84;10264321;28;19922;-76
2022/12/31 20:07:26;;;;;;;;;;;;;;;15.82;61.51;99739.56;10258908;28;20012;-76
2022/12/31 20:12:28;;;;;;;;;;;;;;;16.13;60.30;99745.72;10260650;29;19926;-76
2022/12/31 20:17:30;;;;;;;;;;;;;;;16.17;59.87;99731.34;10259007;28;19977;-76
2022/12/31 20:22:31;;;;;;;;;;;;;;;16.32;58.69;99733.06;10264273;29;19922;-76
2022/12/31 20:27:33;;;;;;;;;;;;;;;16.49;57.88;99740.00;10256921;29;19953;-76
2022/12/31 20:32:35;;;;;;;;;;;;;;;16.63;56.99;99739.16;10260412;29;19928;-76
2022/12/31 20:37:36;;;;;;;;;;;;;;;16.95;55.62;99737.19;10259538;28;19922;-76
2022/12/31 20:42:39;;;;;;;;;;;;;;;17.15;55.01;99733.28;10267501;28;19926;-76
2022/12/31 20:47:41;;;;;;;;;;;;;;;16.96;55.18;99722.97;10265978;29;19923;-76
2022/12/31 20:52:43;;;;;;;;;;;;;;;16.95;55.27;99728.34;10269417;29;19922;-76
2022/12/31 20:57:44;;;;;;;;;;;;;;;16.90;55.28;99726.00;10267358;29;20336;-76
2022/12/31 21:02:46;;;;;;;;;;;;;;;16.72;55.72;99716.50;10265480;29;19929;-75
2022/12/31 21:07:58;;;;;;;;;;;;;;;17.04;54.23;99693.25;10266890;29;19929;-75
2022/12/31 21:12:59;;;;;;;;;;;;;;;16.79;54.69;99693.97;10265337;29;19922;-76
2022/12/31 21:18:01;;;;;;;;;;;;;;;16.93;54.09;99674.53;10268764;29;19950;-75
2022/12/31 21:23:03;;;;;;;;;;;;;;;17.07;53.22;99680.63;10262690;29;20311;-76
2022/12/31 21:28:04;;;;;;;;;;;;;;;16.89;53.56;99663.22;10262772;29;19922;-76
2022/12/31 21:33:06;;;;;;;;;;;;;;;16.93;53.47;99671.88;10264470;29;20013;-76
2022/12/31 21:38:08;;;;;;;;;;;;;;;16.86;53.50;99679.34;10266176;29;20086;-74
2022/12/31 21:43:10;;;;;;;;;;;;;;;16.94;52.60;99682.38;10263794;29;20017;-75
2022/12/31 21:48:19;;;;;;;;;;;;;;;16.84;52.53;99700.69;10275512;23;19957;-75
2022/12/31 21:53:22;;;;;;;;;;;;;;;17.03;51.00;99711.00;10259472;29;19974;-75
2022/12/31 21:58:29;;;;;;;;;;;;;;;17.14;49.90;99713.84;10257921;29;19930;-75
2022/12/31 22:03:31;;;;;;;;;;;;;;;17.21;49.79;99724.06;10259915;29;19944;-75
2022/12/31 22:08:33;;;;;;;;;;;;;;;17.07;49.31;99736.41;10259890;29;19926;-76
2022/12/31 22:13:35;;;;;;;;;;;;;;;16.97;49.31;99745.06;10260165;29;19922;-74
2022/12/31 22:18:38;;;;;;;;;;;;;;;16.87;49.48;99756.25;10258903;29;19926;-75
2022/12/31 22:23:40;;;;;;;;;;;;;;;16.98;48.82;99762.69;10257071;29;20340;-74
2022/12/31 22:28:42;;;;;;;;;;;;;;;16.98;48.91;99774.16;10256701;29;19922;-75
2022/12/31 22:33:44;;;;;;;;;;;;;;;16.95;48.59;99773.50;10258019;29;19922;-73
2022/12/31 22:38:46;;;;;;;;;;;;;;;16.93;48.72;99786.88;10258240;29;19922;-74
2022/12/31 22:43:53;;;;;;;;;;;;;;;16.88;49.27;99794.28;10257588;28;19923;-74
2022/12/31 22:49:03;;;;;;;;;;;;;;;16.89;49.68;99795.97;10256264;29;19968;-74
2022/12/31 22:54:05;;;;;;;;;;;;;;;16.85;49.86;99802.41;10257167;29;19922;-74
2022/12/31 22:59:07;;;;;;;;;;;;;;;16.85;50.27;99818.34;10256508;29;19973;-74
2022/12/31 23:04:08;;;;;;;;;;;;;;;16.88;51.08;99819.03;10255822;28;19922;-74
2022/12/31 23:25:11;;;;;;;;;;;;;;;16.73;52.75;99840.31;10256852;28;19923;-75
2022/12/31 23:30:13;;;;;;;;;;;;;;;16.63;52.97;99851.47;10255245;29;19930;-74
2022/12/31 23:35:14;;;;;;;;;;;;;;;16.76;52.64;99827.72;10255396;29;19922;-73
2022/12/31 23:40:16;;;;;;;;;;;;;;;16.61;53.10;99839.25;10255059;29;19968;-75
2022/12/31 23:45:22;;;;;;;;;;;;;;;16.56;53.47;99847.47;10254013;29;19932;-75
2022/12/31 23:50:30;;;;;;;;;;;;;;;16.48;53.54;99839.13;10254937;29;19923;-75
2022/12/31 23:55:31;;;;;;;;;;;;;;;16.37;54.16;99858.28;10256028;29;20013;-74
